Terminal Aerodrome Forecast
Issued by NWS Springfield, MO

Home | Current Version | Previous Version | Text Only | Print | Product List | Glossary On
Versions: 1 2 3 4 5 6 7 8 9 10 11 12 13 14 15 16 17 18 19 20 21 22 23 24 25
000
FTUS43 KSGF 200700 AAA
TAFSGF
TAF AMD
KSGF 200724Z 2007/2106 11010KT P6SM -SHRA SCT025 BKN060
     FM200900 11015KT 6SM -RA BR BKN015 OVC050
      TEMPO 2009/2012 5SM -TSRA BR BKN009 OVC015CB
     FM201200 11011KT 6SM -RA BR OVC007
     FM201800 02009KT 6SM BR OVC007=

USA.gov is the U.S. government's official web portal to all federal, state and local government web resources and services.